Time;durP1;ratioP1;P1;durP2;ratioP2;P2;SDS_P1;SDS_P2;PMS_P1;PMS_P2;Temp;Humidity;BMP_temperature;BMP_pressure;BME280_temperature;BME280_humidity;BME280_pressure;Samples;Min_cycle;Max_cycle;Signal;HPM_P1;HPM_P2
2023/08/15 00:00:41;;;;;;;;;;;19.30;99.90;;;;;;5014324;28;19967;-44
2023/08/15 00:03:08;;;;;;;;;;;19.20;99.90;;;;;;5014293;28;19925;-44
2023/08/15 00:05:36;;;;;;;;;;;19.20;99.90;;;;;;5012501;28;19962;-44
2023/08/15 00:08:03;;;;;;;;;;;19.20;99.90;;;;;;4995207;28;19926;-44
2023/08/15 00:10:30;;;;;;;;;;;19.10;99.90;;;;;;4980765;28;20047;-44
2023/08/15 00:12:57;;;;;;;;;;;19.10;99.90;;;;;;4982622;28;19973;-44
2023/08/15 00:15:23;;;;;;;;;;;19.10;99.90;;;;;;5011917;28;20366;-44
2023/08/15 00:17:51;;;;;;;;;;;19.10;99.90;;;;;;5001168;28;20065;-44
2023/08/15 00:20:18;;;;;;;;;;;19.00;99.90;;;;;;4992718;28;20436;-44
2023/08/15 00:22:45;;;;;;;;;;;19.00;99.90;;;;;;4992319;28;19977;-44
2023/08/15 00:25:11;;;;;;;;;;;19.00;99.90;;;;;;4999205;28;19926;-44
2023/08/15 00:27:38;;;;;;;;;;;19.00;99.90;;;;;;4995031;28;19964;-43
2023/08/15 00:30:06;;;;;;;;;;;19.00;99.90;;;;;;5012182;28;20289;-44
2023/08/15 00:32:35;;;;;;;;;;;18.90;99.90;;;;;;5002098;28;19932;-43
2023/08/15 00:35:04;;;;;;;;;;;18.90;99.90;;;;;;4992836;28;19926;-44
2023/08/15 00:37:30;;;;;;;;;;;18.90;99.90;;;;;;4993090;28;19925;-43
2023/08/15 00:39:57;;;;;;;;;;;18.90;99.90;;;;;;5005492;28;19936;-44
2023/08/15 00:42:24;;;;;;;;;;;18.80;99.90;;;;;;4994909;28;19975;-43
2023/08/15 00:44:50;;;;;;;;;;;18.80;99.90;;;;;;4986857;28;20366;-43
2023/08/15 00:47:17;;;;;;;;;;;18.80;99.90;;;;;;5012216;28;19952;-44
2023/08/15 00:49:44;;;;;;;;;;;18.80;99.90;;;;;;5012283;28;20423;-44
2023/08/15 00:52:12;;;;;;;;;;;18.80;99.90;;;;;;4995899;28;19925;-43
2023/08/15 00:54:39;;;;;;;;;;;18.80;99.90;;;;;;5004743;28;19940;-44
2023/08/15 00:57:06;;;;;;;;;;;18.80;99.90;;;;;;4998256;28;19932;-43
2023/08/15 00:59:32;;;;;;;;;;;18.70;99.90;;;;;;5035340;28;19959;-44
2023/08/15 01:01:59;;;;;;;;;;;18.70;99.90;;;;;;5005988;28;19926;-44
2023/08/15 01:04:26;;;;;;;;;;;18.70;99.90;;;;;;4995882;28;19981;-44
2023/08/15 01:06:52;;;;;;;;;;;18.70;99.90;;;;;;4995619;28;19940;-44
2023/08/15 01:09:20;;;;;;;;;;;18.70;99.90;;;;;;4995853;28;19925;-44
2023/08/15 01:11:50;;;;;;;;;;;18.70;99.90;;;;;;5005247;28;20368;-43
2023/08/15 01:14:17;;;;;;;;;;;18.70;99.90;;;;;;5007800;28;19992;-43
2023/08/15 01:16:44;;;;;;;;;;;18.70;99.90;;;;;;4978500;28;19983;-43
2023/08/15 01:19:11;;;;;;;;;;;18.70;99.90;;;;;;4997527;28;19964;-43
2023/08/15 01:21:39;;;;;;;;;;;18.70;99.90;;;;;;5015040;28;19964;-44
2023/08/15 01:24:07;;;;;;;;;;;18.70;99.90;;;;;;4996657;28;19963;-43
2023/08/15 01:26:34;;;;;;;;;;;18.70;99.90;;;;;;4996216;28;19926;-44
2023/08/15 01:29:01;;;;;;;;;;;18.70;99.90;;;;;;4996256;28;19977;-43
2023/08/15 01:31:31;;;;;;;;;;;18.70;99.90;;;;;;4995535;28;20018;-44
2023/08/15 01:33:59;;;;;;;;;;;18.70;99.90;;;;;;4995364;28;20393;-43
2023/08/15 01:36:28;;;;;;;;;;;18.70;99.90;;;;;;5000774;28;19955;-44
2023/08/15 01:38:55;;;;;;;;;;;18.70;99.90;;;;;;4987666;28;19966;-43
2023/08/15 01:41:24;;;;;;;;;;;18.70;99.90;;;;;;4994952;28;20011;-43
2023/08/15 01:43:50;;;;;;;;;;;18.70;99.90;;;;;;5000736;28;20493;-44
2023/08/15 01:46:17;;;;;;;;;;;18.70;99.90;;;;;;4995172;28;19952;-44
2023/08/15 01:48:44;;;;;;;;;;;18.80;99.90;;;;;;4982631;28;19925;-43
2023/08/15 01:51:10;;;;;;;;;;;18.80;99.90;;;;;;5005811;28;20382;-43
2023/08/15 01:53:37;;;;;;;;;;;18.80;99.90;;;;;;4977663;28;20010;-44
2023/08/15 01:56:04;;;;;;;;;;;18.80;99.90;;;;;;4994811;28;19926;-44
2023/08/15 01:58:32;;;;;;;;;;;18.80;99.90;;;;;;5006049;28;19947;-43
2023/08/15 02:00:59;;;;;;;;;;;18.80;99.90;;;;;;5032549;28;20597;-44
2023/08/15 02:03:26;;;;;;;;;;;18.80;99.90;;;;;;4997396;28;19986;-43
2023/08/15 02:05:53;;;;;;;;;;;18.80;99.90;;;;;;5014556;28;19960;-43
2023/08/15 02:08:20;;;;;;;;;;;18.80;99.90;;;;;;5023881;28;20026;-44
2023/08/15 02:10:47;;;;;;;;;;;18.80;99.90;;;;;;5005733;28;20020;-43
2023/08/15 02:13:13;;;;;;;;;;;18.90;99.90;;;;;;4997024;28;19932;-44
2023/08/15 02:15:41;;;;;;;;;;;18.80;99.90;;;;;;4997035;28;20405;-43
2023/08/15 02:18:08;;;;;;;;;;;18.80;99.90;;;;;;5013930;28;19925;-44
2023/08/15 02:20:35;;;;;;;;;;;18.90;99.90;;;;;;4997002;28;19962;-44
2023/08/15 02:23:01;;;;;;;;;;;18.90;99.90;;;;;;4997580;28;19949;-44
2023/08/15 02:25:28;;;;;;;;;;;18.90;99.90;;;;;;5013553;28;19926;-43
2023/08/15 02:27:58;;;;;;;;;;;18.90;99.90;;;;;;5002507;28;19925;-44
2023/08/15 02:30:25;;;;;;;;;;;18.90;99.90;;;;;;5004274;28;19966;-44
2023/08/15 02:32:53;;;;;;;;;;;18.90;99.90;;;;;;5013736;28;19940;-44
2023/08/15 02:35:20;;;;;;;;;;;18.90;99.90;;;;;;5013738;28;19940;-44
2023/08/15 02:37:46;;;;;;;;;;;18.80;99.90;;;;;;5014095;28;19940;-43
2023/08/15 02:40:13;;;;;;;;;;;18.90;99.90;;;;;;5017348;28;19936;-44
2023/08/15 02:42:40;;;;;;;;;;;18.90;99.90;;;;;;5033445;28;20392;-43
2023/08/15 02:45:07;;;;;;;;;;;18.90;99.90;;;;;;5033364;28;19936;-44
2023/08/15 02:47:34;;;;;;;;;;;18.90;99.90;;;;;;5023094;28;20424;-44
2023/08/15 02:50:02;;;;;;;;;;;18.90;99.90;;;;;;5013491;28;19925;-44
2023/08/15 02:52:29;;;;;;;;;;;18.90;99.90;;;;;;5013248;28;19925;-44
2023/08/15 02:54:55;;;;;;;;;;;18.90;99.90;;;;;;4996440;28;20028;-43
2023/08/15 02:57:22;;;;;;;;;;;18.90;99.90;;;;;;4998988;28;19925;-43
2023/08/15 02:59:49;;;;;;;;;;;18.90;99.90;;;;;;5013133;28;19925;-43
2023/08/15 03:02:16;;;;;;;;;;;18.90;99.90;;;;;;5013805;28;19932;-43
2023/08/15 03:04:42;;;;;;;;;;;19.00;99.90;;;;;;5031516;28;19925;-44
2023/08/15 03:07:11;;;;;;;;;;;19.00;99.90;;;;;;5029737;28;19925;-43
2023/08/15 03:09:37;;;;;;;;;;;19.00;99.90;;;;;;5033052;28;19938;-44
2023/08/15 03:12:04;;;;;;;;;;;19.00;99.90;;;;;;5032677;28;20296;-44
2023/08/15 03:14:31;;;;;;;;;;;19.00;99.90;;;;;;5015489;28;19946;-43
2023/08/15 03:16:57;;;;;;;;;;;19.00;99.90;;;;;;5031195;28;19972;-44
2023/08/15 03:19:24;;;;;;;;;;;19.00;99.90;;;;;;5014035;28;19972;-43
2023/08/15 03:21:51;;;;;;;;;;;19.00;99.90;;;;;;5031009;28;20013;-43
2023/08/15 03:24:19;;;;;;;;;;;19.10;99.90;;;;;;5029938;28;19960;-44
2023/08/15 03:26:46;;;;;;;;;;;19.10;99.90;;;;;;5031367;28;19936;-43
2023/08/15 03:29:12;;;;;;;;;;;19.10;99.90;;;;;;5014189;28;19932;-44
2023/08/15 03:31:39;;;;;;;;;;;19.10;99.90;;;;;;5013829;28;20510;-44
2023/08/15 03:34:06;;;;;;;;;;;19.10;99.90;;;;;;5013736;28;20003;-44
2023/08/15 03:36:32;;;;;;;;;;;19.20;99.90;;;;;;5015147;28;20040;-43
2023/08/15 03:38:59;;;;;;;;;;;19.10;99.90;;;;;;5032434;28;19940;-43
2023/08/15 03:41:27;;;;;;;;;;;19.20;99.90;;;;;;5029856;28;19955;-42
2023/08/15 03:43:54;;;;;;;;;;;19.20;99.90;;;;;;5017879;28;20347;-43
2023/08/15 03:46:20;;;;;;;;;;;19.20;99.90;;;;;;5015513;28;20415;-42
2023/08/15 03:48:47;;;;;;;;;;;19.10;99.90;;;;;;5013403;28;19964;-42
2023/08/15 03:51:13;;;;;;;;;;;19.20;99.90;;;;;;5020299;28;20400;-42
2023/08/15 03:53:40;;;;;;;;;;;19.10;99.90;;;;;;5026191;28;19929;-43
2023/08/15 03:56:07;;;;;;;;;;;19.20;99.90;;;;;;5029367;28;19933;-43
2023/08/15 03:58:35;;;;;;;;;;;19.20;99.90;;;;;;5013275;28;19929;-43
2023/08/15 04:01:02;;;;;;;;;;;19.20;99.90;;;;;;5012761;28;20397;-43
2023/08/15 04:03:29;;;;;;;;;;;19.20;99.90;;;;;;5012946;28;19926;-42
2023/08/15 04:05:55;;;;;;;;;;;19.10;99.90;;;;;;5012818;28;20380;-43
2023/08/15 04:08:22;;;;;;;;;;;19.10;99.90;;;;;;5030139;28;19936;-42
2023/08/15 04:10:49;;;;;;;;;;;19.10;99.90;;;;;;5001070;28;20293;-43
2023/08/15 04:13:15;;;;;;;;;;;19.10;99.90;;;;;;5009775;28;19929;-43
2023/08/15 04:15:43;;;;;;;;;;;19.10;99.90;;;;;;5020196;28;19959;-43
2023/08/15 04:18:10;;;;;;;;;;;19.10;99.90;;;;;;5005616;28;20385;-42
2023/08/15 04:20:37;;;;;;;;;;;19.10;99.90;;;;;;5013120;28;20376;-43
2023/08/15 04:23:04;;;;;;;;;;;19.10;99.90;;;;;;5012952;28;19933;-43
2023/08/15 04:25:31;;;;;;;;;;;19.00;99.90;;;;;;5014525;28;19979;-43
2023/08/15 04:27:57;;;;;;;;;;;19.00;99.90;;;;;;5015293;28;20388;-43
2023/08/15 04:30:24;;;;;;;;;;;19.00;99.90;;;;;;5030934;28;19937;-43
2023/08/15 04:32:52;;;;;;;;;;;19.00;99.90;;;;;;5033908;28;19948;-43
2023/08/15 04:35:19;;;;;;;;;;;19.00;99.90;;;;;;5035002;28;19925;-43
2023/08/15 04:37:46;;;;;;;;;;;19.00;99.90;;;;;;5035567;28;19973;-43
2023/08/15 04:40:13;;;;;;;;;;;19.00;99.90;;;;;;5018114;28;20415;-43
2023/08/15 04:42:39;;;;;;;;;;;19.00;99.90;;;;;;5018070;28;20009;-44
2023/08/15 04:45:06;;;;;;;;;;;19.00;99.90;;;;;;5017384;28;19933;-42
2023/08/15 04:47:33;;;;;;;;;;;19.00;99.90;;;;;;5017467;28;19944;-43
2023/08/15 04:50:01;;;;;;;;;;;19.00;99.90;;;;;;5034501;28;20389;-43
2023/08/15 04:52:28;;;;;;;;;;;19.00;99.90;;;;;;5035469;28;19967;-43
2023/08/15 04:54:55;;;;;;;;;;;19.00;99.90;;;;;;5018060;28;20018;-43
2023/08/15 04:57:22;;;;;;;;;;;19.00;99.90;;;;;;5018249;28;19989;-43
2023/08/15 04:59:48;;;;;;;;;;;19.00;99.90;;;;;;5034752;28;19929;-43
2023/08/15 05:02:15;;;;;;;;;;;19.00;99.90;;;;;;5016555;28;19994;-43
2023/08/15 05:04:42;;;;;;;;;;;19.00;99.90;;;;;;5035252;28;20385;-43
2023/08/15 05:07:10;;;;;;;;;;;19.00;99.90;;;;;;5017780;28;19929;-43
2023/08/15 05:09:37;;;;;;;;;;;19.00;99.90;;;;;;5033790;28;20031;-42
2023/08/15 05:12:04;;;;;;;;;;;19.00;99.90;;;;;;5017708;28;19987;-43
2023/08/15 05:14:31;;;;;;;;;;;19.00;99.90;;;;;;5023073;28;19945;-44
2023/08/15 05:16:58;;;;;;;;;;;19.00;99.90;;;;;;5009669;28;19963;-43
2023/08/15 05:19:25;;;;;;;;;;;18.90;99.90;;;;;;5029064;28;19925;-43
2023/08/15 05:21:52;;;;;;;;;;;19.00;99.90;;;;;;5016781;28;19966;-42
2023/08/15 05:24:20;;;;;;;;;;;19.00;99.90;;;;;;4997618;28;20309;-43
2023/08/15 05:26:46;;;;;;;;;;;18.90;99.90;;;;;;4997466;28;19964;-43
2023/08/15 05:29:13;;;;;;;;;;;19.00;99.90;;;;;;5018944;28;19981;-43
2023/08/15 05:31:40;;;;;;;;;;;19.00;99.90;;;;;;5025823;28;20025;-42
2023/08/15 05:34:06;;;;;;;;;;;19.00;99.90;;;;;;5034587;28;19963;-43
2023/08/15 05:36:33;;;;;;;;;;;18.90;99.90;;;;;;5034893;28;19933;-42
2023/08/15 05:39:04;;;;;;;;;;;19.00;99.90;;;;;;5033785;28;20005;-44
2023/08/15 05:41:32;;;;;;;;;;;19.00;99.90;;;;;;5034740;28;19925;-43
2023/08/15 05:43:58;;;;;;;;;;;19.00;99.90;;;;;;5017091;28;19941;-42
2023/08/15 05:46:25;;;;;;;;;;;19.00;99.90;;;;;;4997617;28;19971;-43
2023/08/15 05:48:52;;;;;;;;;;;19.00;99.90;;;;;;5021601;28;20006;-42
2023/08/15 05:51:18;;;;;;;;;;;19.00;99.90;;;;;;5020139;28;19983;-42
2023/08/15 05:53:45;;;;;;;;;;;19.00;99.90;;;;;;5015273;28;19943;-42
2023/08/15 05:56:12;;;;;;;;;;;19.00;99.90;;;;;;5033035;28;19928;-42
2023/08/15 05:58:40;;;;;;;;;;;18.90;99.90;;;;;;5032878;28;20403;-43
2023/08/15 06:01:07;;;;;;;;;;;18.90;99.90;;;;;;5030248;28;19986;-42
2023/08/15 06:03:34;;;;;;;;;;;18.90;99.90;;;;;;5027335;28;19925;-43
2023/08/15 06:06:00;;;;;;;;;;;18.90;99.90;;;;;;5015512;28;19945;-42
2023/08/15 06:08:27;;;;;;;;;;;18.90;99.90;;;;;;5012563;28;20002;-42
2023/08/15 06:10:54;;;;;;;;;;;18.90;99.90;;;;;;5032713;28;20009;-42
2023/08/15 06:13:20;;;;;;;;;;;18.90;99.90;;;;;;5024035;28;20385;-42
2023/08/15 06:15:48;;;;;;;;;;;18.90;99.90;;;;;;5042543;28;19925;-43
2023/08/15 06:18:15;;;;;;;;;;;18.90;99.90;;;;;;5034627;28;19925;-42
2023/08/15 06:20:42;;;;;;;;;;;18.90;99.90;;;;;;5034684;28;19963;-42
2023/08/15 06:23:08;;;;;;;;;;;18.90;99.90;;;;;;5034492;28;20436;-42
2023/08/15 06:25:35;;;;;;;;;;;19.00;99.90;;;;;;5052181;28;19925;-43
2023/08/15 06:28:02;;;;;;;;;;;19.00;99.90;;;;;;5017150;28;19976;-42
2023/08/15 06:30:28;;;;;;;;;;;19.10;99.90;;;;;;5018059;28;19930;-43
2023/08/15 06:32:57;;;;;;;;;;;19.20;99.90;;;;;;5021728;28;20336;-43
2023/08/15 06:35:28;;;;;;;;;;;19.30;99.90;;;;;;5017493;28;19925;-42
2023/08/15 06:37:54;;;;;;;;;;;19.30;99.90;;;;;;5052228;28;20355;-43
2023/08/15 06:40:21;;;;;;;;;;;19.50;99.90;;;;;;5032763;28;19958;-43
2023/08/15 06:42:48;;;;;;;;;;;19.60;99.90;;;;;;5014135;28;19970;-43
2023/08/15 06:45:16;;;;;;;;;;;19.70;99.90;;;;;;5031898;28;20009;-43
2023/08/15 06:47:42;;;;;;;;;;;19.70;99.90;;;;;;5031780;28;20388;-43
2023/08/15 06:50:11;;;;;;;;;;;19.80;99.90;;;;;;5031026;28;19939;-44
2023/08/15 06:52:37;;;;;;;;;;;19.90;99.90;;;;;;5031935;28;19925;-44
2023/08/15 06:55:06;;;;;;;;;;;20.00;99.90;;;;;;5031097;28;19976;-41
2023/08/15 06:57:33;;;;;;;;;;;20.10;99.90;;;;;;5031717;28;19993;-44
2023/08/15 06:59:59;;;;;;;;;;;20.20;99.90;;;;;;5031758;28;19975;-44
2023/08/15 07:02:26;;;;;;;;;;;20.40;99.90;;;;;;5013603;28;19932;-43
2023/08/15 07:04:53;;;;;;;;;;;20.50;99.90;;;;;;5031928;28;19987;-42
2023/08/15 07:07:21;;;;;;;;;;;20.60;99.90;;;;;;5014115;28;19933;-43
2023/08/15 07:09:47;;;;;;;;;;;20.70;99.90;;;;;;5025472;28;19939;-43
2023/08/15 07:12:17;;;;;;;;;;;20.80;99.90;;;;;;5044815;28;19947;-44
2023/08/15 07:14:45;;;;;;;;;;;21.00;99.90;;;;;;5051151;28;19979;-44
2023/08/15 07:17:12;;;;;;;;;;;21.10;99.90;;;;;;5031589;28;19966;-43
2023/08/15 07:19:38;;;;;;;;;;;21.20;99.90;;;;;;5031517;28;19972;-43
2023/08/15 07:22:05;;;;;;;;;;;21.30;99.90;;;;;;5013786;28;20245;-43
2023/08/15 07:24:33;;;;;;;;;;;21.40;99.90;;;;;;5030494;28;20404;-44
2023/08/15 07:27:00;;;;;;;;;;;21.50;99.90;;;;;;5030991;28;19971;-43
2023/08/15 07:29:26;;;;;;;;;;;21.60;99.90;;;;;;5013516;28;19945;-43
2023/08/15 07:31:53;;;;;;;;;;;21.60;99.90;;;;;;5031621;28;19970;-43
2023/08/15 07:34:20;;;;;;;;;;;21.60;99.90;;;;;;5031254;28;20073;-44
2023/08/15 07:36:47;;;;;;;;;;;21.60;99.90;;;;;;5031172;28;19948;-44
2023/08/15 07:39:14;;;;;;;;;;;21.50;99.90;;;;;;5028353;28;19940;-44
2023/08/15 07:41:42;;;;;;;;;;;21.60;99.90;;;;;;5029149;28;20308;-44
2023/08/15 07:44:09;;;;;;;;;;;21.70;99.90;;;;;;5030944;28;19937;-43
2023/08/15 07:46:35;;;;;;;;;;;21.80;99.90;;;;;;5004271;28;19947;-43
2023/08/15 07:49:02;;;;;;;;;;;22.00;99.90;;;;;;5030594;28;19925;-44
2023/08/15 07:51:29;;;;;;;;;;;22.10;99.90;;;;;;5013865;28;20422;-43
2023/08/15 07:53:55;;;;;;;;;;;22.20;99.90;;;;;;5049569;28;19970;-44
2023/08/15 07:56:22;;;;;;;;;;;22.30;99.90;;;;;;5018458;28;19962;-43
2023/08/15 07:58:51;;;;;;;;;;;22.40;99.90;;;;;;5013570;28;19980;-43
2023/08/15 08:01:17;;;;;;;;;;;22.40;99.90;;;;;;5008134;28;20370;-44
2023/08/15 08:03:44;;;;;;;;;;;22.40;99.90;;;;;;5017970;28;19934;-44
2023/08/15 08:06:11;;;;;;;;;;;22.40;99.90;;;;;;5031623;28;20463;-44
2023/08/15 08:08:37;;;;;;;;;;;22.50;99.90;;;;;;5054841;28;19943;-43
2023/08/15 08:11:04;;;;;;;;;;;22.50;99.90;;;;;;5023294;28;19945;-44
2023/08/15 08:13:31;;;;;;;;;;;22.50;99.90;;;;;;5014898;28;20387;-43
2023/08/15 08:15:59;;;;;;;;;;;22.40;99.90;;;;;;5014897;28;19940;-44
2023/08/15 08:18:26;;;;;;;;;;;22.40;99.90;;;;;;4997380;28;19964;-43
2023/08/15 08:20:52;;;;;;;;;;;22.50;99.90;;;;;;5016703;28;20436;-44
2023/08/15 08:23:19;;;;;;;;;;;22.50;99.90;;;;;;4996986;28;19930;-44
2023/08/15 08:25:46;;;;;;;;;;;22.50;99.90;;;;;;5000786;28;19925;-42
2023/08/15 08:28:13;;;;;;;;;;;22.60;99.90;;;;;;5034325;28;19939;-44
2023/08/15 08:30:42;;;;;;;;;;;22.70;99.90;;;;;;5034488;28;19945;-43
2023/08/15 08:33:12;;;;;;;;;;;22.70;99.90;;;;;;5034771;28;20361;-43
2023/08/15 08:35:39;;;;;;;;;;;22.90;99.90;;;;;;5034580;28;20006;-43
2023/08/15 08:38:06;;;;;;;;;;;23.20;99.90;;;;;;5033679;28;19925;-44
2023/08/15 08:40:32;;;;;;;;;;;23.30;99.90;;;;;;5016683;28;19925;-43
2023/08/15 08:42:59;;;;;;;;;;;23.40;99.90;;;;;;5034058;28;19965;-43
2023/08/15 08:45:27;;;;;;;;;;;23.50;99.90;;;;;;5034211;28;19942;-44
2023/08/15 08:47:53;;;;;;;;;;;23.60;99.90;;;;;;5034115;28;20463;-44
2023/08/15 08:50:21;;;;;;;;;;;23.60;99.90;;;;;;5033137;28;19999;-44
2023/08/15 08:52:49;;;;;;;;;;;23.70;99.90;;;;;;5010587;28;19933;-43
2023/08/15 08:55:16;;;;;;;;;;;23.80;99.90;;;;;;5012189;28;20360;-44
2023/08/15 08:57:43;;;;;;;;;;;23.90;99.90;;;;;;5036155;28;19936;-44
2023/08/15 09:00:11;;;;;;;;;;;24.10;99.90;;;;;;5031611;28;19995;-44
2023/08/15 09:02:38;;;;;;;;;;;24.20;99.90;;;;;;5041697;28;19929;-44
2023/08/15 09:05:07;;;;;;;;;;;24.30;99.90;;;;;;5033935;28;19925;-43
2023/08/15 09:07:36;;;;;;;;;;;24.50;99.90;;;;;;4997102;28;19925;-42
2023/08/15 09:10:04;;;;;;;;;;;24.60;99.90;;;;;;5015637;28;19944;-43
2023/08/15 09:12:32;;;;;;;;;;;24.70;99.90;;;;;;5028568;28;19960;-44
2023/08/15 09:14:58;;;;;;;;;;;24.80;99.90;;;;;;5015921;28;19973;-43
2023/08/15 09:17:26;;;;;;;;;;;24.80;99.90;;;;;;5004905;28;19967;-43
2023/08/15 09:19:53;;;;;;;;;;;24.80;99.90;;;;;;4998454;28;19980;-44
2023/08/15 09:22:23;;;;;;;;;;;24.90;99.90;;;;;;4999219;28;19968;-44
2023/08/15 09:24:51;;;;;;;;;;;24.90;99.90;;;;;;5015918;28;19979;-44
2023/08/15 09:27:18;;;;;;;;;;;25.00;99.90;;;;;;5012741;28;19963;-44
2023/08/15 09:29:44;;;;;;;;;;;25.20;99.90;;;;;;5025281;28;19983;-44
2023/08/15 09:32:11;;;;;;;;;;;25.30;99.90;;;;;;5033365;28;19931;-43
2023/08/15 09:34:38;;;;;;;;;;;25.20;99.90;;;;;;5015996;28;19975;-43
2023/08/15 09:37:05;;;;;;;;;;;25.00;99.90;;;;;;5001843;28;20031;-44
2023/08/15 09:39:31;;;;;;;;;;;25.00;99.90;;;;;;5032228;28;19928;-44
2023/08/15 09:41:59;;;;;;;;;;;24.90;99.90;;;;;;5015156;28;19933;-43
2023/08/15 09:44:30;;;;;;;;;;;24.70;99.90;;;;;;5033054;28;20404;-45
2023/08/15 09:46:56;;;;;;;;;;;24.70;99.90;;;;;;5033162;28;19947;-45
2023/08/15 09:49:23;;;;;;;;;;;24.70;99.90;;;;;;5032092;28;20296;-43
2023/08/15 09:51:50;;;;;;;;;;;24.90;99.90;;;;;;5014769;28;19968;-44
2023/08/15 09:54:16;;;;;;;;;;;25.00;99.90;;;;;;4996367;28;20665;-42
2023/08/15 09:56:43;;;;;;;;;;;24.90;99.90;;;;;;5012998;28;19938;-44
2023/08/15 09:59:12;;;;;;;;;;;24.90;99.90;;;;;;5011677;28;19940;-43
2023/08/15 10:01:38;;;;;;;;;;;24.80;99.90;;;;;;5012929;28;20407;-45
2023/08/15 10:04:07;;;;;;;;;;;24.80;99.90;;;;;;5015970;28;19978;-43
2023/08/15 10:06:34;;;;;;;;;;;24.80;99.90;;;;;;5012001;28;19943;-43
2023/08/15 10:09:00;;;;;;;;;;;24.90;99.90;;;;;;5009253;28;19929;-44
2023/08/15 10:11:27;;;;;;;;;;;25.00;99.90;;;;;;4996821;28;19962;-44
2023/08/15 10:13:54;;;;;;;;;;;25.00;99.90;;;;;;4997740;28;19940;-43
2023/08/15 10:16:22;;;;;;;;;;;25.00;99.90;;;;;;5014309;28;19930;-44
2023/08/15 10:18:53;;;;;;;;;;;25.00;99.90;;;;;;5002226;28;20317;-44
2023/08/15 10:21:19;;;;;;;;;;;25.10;99.90;;;;;;5021454;28;19928;-44
2023/08/15 10:23:46;;;;;;;;;;;25.20;99.90;;;;;;5028534;28;19948;-44
2023/08/15 10:26:13;;;;;;;;;;;25.30;99.90;;;;;;5019477;28;19940;-43
2023/08/15 10:28:40;;;;;;;;;;;25.30;99.90;;;;;;5016864;28;19980;-43
2023/08/15 10:31:07;;;;;;;;;;;25.30;99.90;;;;;;5033672;28;19925;-44
2023/08/15 10:33:35;;;;;;;;;;;25.20;99.90;;;;;;5033470;28;20442;-44
2023/08/15 10:36:08;;;;;;;;;;;25.30;99.90;;;;;;5025629;28;20380;-44
2023/08/15 10:38:37;;;;;;;;;;;25.40;99.90;;;;;;5023599;28;20015;-44
2023/08/15 10:41:04;;;;;;;;;;;25.50;99.90;;;;;;5028946;28;19942;-43
2023/08/15 10:43:30;;;;;;;;;;;25.40;99.90;;;;;;5021977;28;20380;-44
2023/08/15 10:45:58;;;;;;;;;;;25.40;99.90;;;;;;5015720;28;19950;-43
2023/08/15 10:48:52;;;;;;;;;;;25.50;99.90;;;;;;5003804;28;20427;-43
2023/08/15 10:51:20;;;;;;;;;;;25.60;99.90;;;;;;4966638;28;19940;-43
2023/08/15 10:53:47;;;;;;;;;;;25.70;99.90;;;;;;5011304;28;20088;-44
2023/08/15 10:56:14;;;;;;;;;;;25.80;99.90;;;;;;5017158;28;19960;-44
2023/08/15 10:58:41;;;;;;;;;;;25.90;99.90;;;;;;4995951;28;19991;-44
2023/08/15 11:01:07;;;;;;;;;;;25.90;99.90;;;;;;5024240;28;19960;-44
2023/08/15 11:03:35;;;;;;;;;;;26.00;99.90;;;;;;5006530;28;19952;-43
2023/08/15 11:06:08;;;;;;;;;;;26.00;99.90;;;;;;4995829;28;20379;-44
2023/08/15 11:08:36;;;;;;;;;;;26.00;99.90;;;;;;5010237;28;19965;-43
2023/08/15 11:11:02;;;;;;;;;;;25.90;99.90;;;;;;5015055;28;20310;-44
2023/08/15 11:13:29;;;;;;;;;;;25.90;99.90;;;;;;5030797;28;19925;-44
2023/08/15 11:15:56;;;;;;;;;;;25.90;99.90;;;;;;5014374;28;19925;-43
2023/08/15 11:18:24;;;;;;;;;;;25.80;99.90;;;;;;5013822;28;20078;-44
2023/08/15 11:20:51;;;;;;;;;;;25.70;99.90;;;;;;5003398;28;19960;-44
2023/08/15 11:23:19;;;;;;;;;;;25.60;99.90;;;;;;5022647;28;19962;-44
2023/08/15 11:25:47;;;;;;;;;;;25.60;99.90;;;;;;5013040;28;20021;-43
2023/08/15 11:28:13;;;;;;;;;;;25.70;99.90;;;;;;5032935;28;19943;-44
2023/08/15 11:30:40;;;;;;;;;;;25.70;99.90;;;;;;5032654;28;19963;-44
2023/08/15 11:33:07;;;;;;;;;;;25.70;99.90;;;;;;5016563;28;19925;-44
2023/08/15 11:35:35;;;;;;;;;;;25.70;99.90;;;;;;5013756;28;19959;-44
2023/08/15 11:38:02;;;;;;;;;;;25.70;99.90;;;;;;5030483;28;19985;-44
2023/08/15 11:40:30;;;;;;;;;;;25.80;99.90;;;;;;5024979;28;19936;-44
2023/08/15 11:42:58;;;;;;;;;;;25.90;99.90;;;;;;4999620;28;19940;-44
2023/08/15 11:45:25;;;;;;;;;;;26.00;99.90;;;;;;5018802;28;19926;-44
2023/08/15 11:47:52;;;;;;;;;;;26.10;99.90;;;;;;5009561;28;19968;-44
2023/08/15 11:50:19;;;;;;;;;;;26.20;99.90;;;;;;5031440;28;19936;-44
2023/08/15 11:52:46;;;;;;;;;;;26.10;99.90;;;;;;5021101;28;20062;-44
2023/08/15 11:55:12;;;;;;;;;;;26.10;99.90;;;;;;5032365;28;19944;-44
2023/08/15 11:57:40;;;;;;;;;;;26.20;99.90;;;;;;5020865;28;19952;-44
2023/08/15 12:00:09;;;;;;;;;;;26.20;99.90;;;;;;5031734;28;19925;-43
2023/08/15 12:02:36;;;;;;;;;;;26.40;99.90;;;;;;5009885;28;20063;-43
2023/08/15 12:05:10;;;;;;;;;;;26.40;99.90;;;;;;5032114;28;19959;-44
2023/08/15 12:07:36;;;;;;;;;;;26.40;99.90;;;;;;5014089;28;19932;-44
2023/08/15 12:10:03;;;;;;;;;;;26.40;99.90;;;;;;5031477;28;19925;-44
2023/08/15 12:12:30;;;;;;;;;;;26.40;99.90;;;;;;5031628;28;20347;-45
2023/08/15 12:14:57;;;;;;;;;;;26.40;99.90;;;;;;4999163;28;19925;-44
2023/08/15 12:17:27;;;;;;;;;;;26.30;99.90;;;;;;5017037;28;20335;-44
2023/08/15 12:19:53;;;;;;;;;;;26.30;99.90;;;;;;5017179;28;19940;-44
2023/08/15 12:22:20;;;;;;;;;;;26.10;99.90;;;;;;5026850;28;19948;-44
2023/08/15 12:24:47;;;;;;;;;;;26.10;99.90;;;;;;5007243;28;19985;-43
2023/08/15 12:27:13;;;;;;;;;;;25.90;99.90;;;;;;5031989;28;19925;-43
2023/08/15 12:29:40;;;;;;;;;;;25.90;99.90;;;;;;5025484;28;19932;-44
2023/08/15 12:32:07;;;;;;;;;;;25.80;99.90;;;;;;5033408;28;19940;-44
2023/08/15 12:34:35;;;;;;;;;;;25.80;99.90;;;;;;5034189;28;20388;-44
2023/08/15 12:37:01;;;;;;;;;;;25.80;99.90;;;;;;5004384;28;19983;-44
2023/08/15 12:39:28;;;;;;;;;;;26.10;99.90;;;;;;5011931;28;19949;-44
2023/08/15 12:41:55;;;;;;;;;;;26.40;99.90;;;;;;5011843;28;19971;-44
2023/08/15 12:44:21;;;;;;;;;;;26.70;99.90;;;;;;5031632;28;19998;-44
2023/08/15 12:46:48;;;;;;;;;;;26.80;99.90;;;;;;5030520;28;19947;-43
2023/08/15 12:49:15;;;;;;;;;;;27.00;99.90;;;;;;5006546;28;19933;-44
2023/08/15 12:51:43;;;;;;;;;;;27.10;99.90;;;;;;5028364;28;19944;-43
2023/08/15 12:54:10;;;;;;;;;;;27.20;99.90;;;;;;5007588;28;19988;-44
2023/08/15 12:56:36;;;;;;;;;;;27.10;99.90;;;;;;5017822;28;19972;-44
2023/08/15 12:59:03;;;;;;;;;;;27.10;99.90;;;;;;5017495;28;19932;-44
2023/08/15 13:01:30;;;;;;;;;;;27.00;99.90;;;;;;5035037;28;20106;-44
2023/08/15 13:03:56;;;;;;;;;;;27.00;99.90;;;;;;5022229;28;19955;-44
2023/08/15 13:06:23;;;;;;;;;;;27.10;99.90;;;;;;4999452;28;19957;-44
2023/08/15 13:08:51;;;;;;;;;;;27.20;99.90;;;;;;5015424;28;19945;-44
2023/08/15 13:11:18;;;;;;;;;;;27.20;99.90;;;;;;5015493;28;20296;-45
2023/08/15 13:13:45;;;;;;;;;;;27.20;99.90;;;;;;5015373;28;19933;-45
2023/08/15 13:16:11;;;;;;;;;;;27.20;99.90;;;;;;4998040;28;20356;-43
2023/08/15 13:18:38;;;;;;;;;;;27.40;99.90;;;;;;5013025;28;19950;-44
2023/08/15 13:21:05;;;;;;;;;;;27.40;99.90;;;;;;5028534;28;19940;-44
2023/08/15 13:23:33;;;;;;;;;;;27.50;99.90;;;;;;5027892;28;19947;-44
2023/08/15 13:26:01;;;;;;;;;;;27.50;99.90;;;;;;5004821;28;19964;-44
2023/08/15 13:28:28;;;;;;;;;;;27.40;99.90;;;;;;5014976;28;19973;-43
2023/08/15 13:30:55;;;;;;;;;;;27.40;99.90;;;;;;5014980;28;19960;-44
2023/08/15 13:33:21;;;;;;;;;;;27.40;99.90;;;;;;4997716;28;19943;-44
2023/08/15 13:35:48;;;;;;;;;;;27.50;99.90;;;;;;5022733;28;19963;-44
2023/08/15 13:38:15;;;;;;;;;;;27.60;99.90;;;;;;5032942;28;19943;-44
2023/08/15 13:40:41;;;;;;;;;;;27.60;99.90;;;;;;5033955;28;19943;-44
2023/08/15 13:43:09;;;;;;;;;;;27.70;99.90;;;;;;5034514;28;19941;-44
2023/08/15 13:45:36;;;;;;;;;;;27.70;99.90;;;;;;5033946;28;20375;-44
2023/08/15 13:48:03;;;;;;;;;;;27.80;99.90;;;;;;5034531;28;19941;-43
2023/08/15 13:50:30;;;;;;;;;;;27.90;99.40;;;;;;5033233;28;20350;-44
2023/08/15 13:52:56;;;;;;;;;;;28.10;99.90;;;;;;5034323;28;20454;-44
2023/08/15 13:55:23;;;;;;;;;;;28.20;99.90;;;;;;5034237;28;19947;-44
2023/08/15 13:57:50;;;;;;;;;;;28.30;99.90;;;;;;5023508;28;19925;-44
2023/08/15 14:00:18;;;;;;;;;;;28.30;99.90;;;;;;5014028;28;20482;-44
2023/08/15 14:02:44;;;;;;;;;;;28.30;99.80;;;;;;5013646;28;19933;-44
2023/08/15 14:05:11;;;;;;;;;;;28.10;99.50;;;;;;5015316;28;19952;-44
2023/08/15 14:07:38;;;;;;;;;;;28.00;99.90;;;;;;5015419;28;19959;-43
2023/08/15 14:10:05;;;;;;;;;;;28.00;99.80;;;;;;5013247;28;19938;-44
2023/08/15 14:12:32;;;;;;;;;;;28.00;99.40;;;;;;5027382;28;20335;-45
2023/08/15 14:14:58;;;;;;;;;;;27.90;99.60;;;;;;5024590;28;19936;-44